Time;durP1;ratioP1;P1;durP2;ratioP2;P2;SDS_P1;SDS_P2;PMS_P1;PMS_P2;Temp;Humidity;BMP_temperature;BMP_pressure;BME280_temperature;BME280_humidity;BME280_pressure;Samples;Min_cycle;Max_cycle;Signal;HPM_P1;HPM_P2
2023/12/18 00:02:25;;;;;;;9.38;3.25;;;25.80;99.90;;;;;;5068166;28;20302;-83
2023/12/18 00:04:56;;;;;;;9.07;3.17;;;26.00;99.90;;;;;;5072025;28;20799;-83
2023/12/18 00:07:27;;;;;;;8.88;3.05;;;25.90;99.90;;;;;;5066573;28;20556;-83
2023/12/18 00:09:59;;;;;;;11.00;3.08;;;26.00;99.90;;;;;;5068240;28;20227;-83
2023/12/18 00:12:30;;;;;;;11.30;3.30;;;26.00;99.90;;;;;;5069898;28;20199;-83
2023/12/18 00:15:01;;;;;;;11.32;3.83;;;26.10;99.90;;;;;;5073160;28;20279;-84
2023/12/18 00:17:32;;;;;;;12.93;3.40;;;26.10;99.90;;;;;;5080919;28;20259;-84
2023/12/18 00:20:03;;;;;;;11.77;3.50;;;26.20;99.90;;;;;;5070486;28;20295;-83
2023/12/18 00:22:33;;;;;;;11.68;3.17;;;26.20;99.90;;;;;;5072506;28;20250;-84
2023/12/18 00:25:06;;;;;;;11.85;3.28;;;26.30;99.90;;;;;;5072566;28;20250;-83
2023/12/18 00:27:37;;;;;;;9.30;3.10;;;26.30;99.90;;;;;;5067950;28;20220;-83
2023/12/18 00:30:09;;;;;;;12.75;3.85;;;26.30;99.90;;;;;;5072295;28;20192;-83
2023/12/18 00:32:40;;;;;;;10.48;3.33;;;26.20;99.90;;;;;;5089473;28;20223;-84
2023/12/18 00:35:11;;;;;;;14.52;3.75;;;26.30;99.90;;;;;;5088741;28;20196;-83
2023/12/18 00:37:43;;;;;;;10.00;3.80;;;26.40;99.90;;;;;;5091335;28;20244;-83
2023/12/18 00:40:16;;;;;;;14.07;3.88;;;26.50;99.90;;;;;;5071976;28;20196;-83
2023/12/18 00:42:48;;;;;;;12.43;3.50;;;26.60;99.90;;;;;;5072036;28;20785;-84
2023/12/18 00:45:19;;;;;;;11.65;3.42;;;26.60;99.90;;;;;;5051625;28;20192;-84
2023/12/18 00:47:51;;;;;;;16.85;4.10;;;26.70;99.90;;;;;;5068685;28;20192;-83
2023/12/18 00:50:22;;;;;;;10.32;3.40;;;26.70;99.90;;;;;;5072143;28;20204;-84
2023/12/18 00:52:53;;;;;;;12.05;3.42;;;26.80;99.90;;;;;;5070532;28;20202;-84
2023/12/18 00:55:26;;;;;;;13.52;3.78;;;26.90;99.90;;;;;;5075464;28;20541;-83
2023/12/18 00:57:56;;;;;;;11.23;3.42;;;27.00;99.90;;;;;;5079750;28;20499;-84
2023/12/18 01:00:27;;;;;;;10.70;3.20;;;27.00;99.90;;;;;;5067554;28;20196;-84
2023/12/18 01:02:58;;;;;;;9.70;2.97;;;27.00;99.90;;;;;;5071259;28;20283;-84
2023/12/18 01:05:29;;;;;;;9.15;3.30;;;27.10;99.90;;;;;;5073704;28;20279;-83
2023/12/18 01:08:01;;;;;;;10.50;3.28;;;27.10;99.90;;;;;;5073886;28;20211;-84
2023/12/18 01:10:33;;;;;;;10.27;3.22;;;27.20;99.90;;;;;;5069182;28;20211;-84
2023/12/18 01:13:04;;;;;;;13.45;4.03;;;27.30;99.90;;;;;;5073332;28;20202;-84
2023/12/18 01:15:35;;;;;;;11.38;3.38;;;27.20;99.90;;;;;;5073040;28;20329;-82
2023/12/18 01:18:06;;;;;;;12.82;3.72;;;27.20;99.90;;;;;;5071526;28;20238;-83
2023/12/18 01:20:37;;;;;;;12.52;3.40;;;27.20;99.90;;;;;;5069800;28;20200;-83
2023/12/18 01:23:08;;;;;;;13.48;3.60;;;27.20;99.90;;;;;;5070910;28;20200;-82
2023/12/18 01:25:40;;;;;;;12.98;3.90;;;27.40;99.90;;;;;;5051170;28;20195;-84
2023/12/18 01:28:12;;;;;;;12.25;3.83;;;27.50;99.90;;;;;;5066731;28;20191;-84
2023/12/18 01:30:42;;;;;;;11.32;3.55;;;27.40;99.90;;;;;;5069673;28;20195;-83
2023/12/18 01:33:13;;;;;;;18.58;4.00;;;27.50;99.90;;;;;;5069702;28;20608;-84
2023/12/18 01:35:44;;;;;;;14.50;4.00;;;27.60;99.90;;;;;;5071702;28;20558;-83
2023/12/18 01:38:15;;;;;;;14.30;4.05;;;27.50;99.90;;;;;;5083945;28;20204;-83
2023/12/18 01:40:51;;;;;;;15.05;3.67;;;27.40;99.90;;;;;;5080178;28;20191;-84
2023/12/18 01:43:28;;;;;;;13.52;3.72;;;27.40;99.90;;;;;;5083015;28;20274;-85
2023/12/18 01:46:01;;;;;;;14.98;4.13;;;27.40;99.90;;;;;;5079413;28;20279;-86
2023/12/18 01:48:32;;;;;;;12.05;3.45;;;27.50;99.90;;;;;;5062737;28;20212;-83
2023/12/18 01:51:05;;;;;;;14.23;4.18;;;27.50;99.90;;;;;;5072212;28;20189;-83
2023/12/18 01:53:38;;;;;;;13.65;4.03;;;27.70;99.90;;;;;;5083601;28;20200;-84
2023/12/18 01:56:12;;;;;;;12.45;3.53;;;27.90;99.90;;;;;;5091343;28;20230;-83
2023/12/18 01:58:45;;;;;;;15.82;3.88;;;27.90;99.90;;;;;;5075490;28;20298;-83
2023/12/18 02:01:16;;;;;;;14.63;4.00;;;27.80;99.90;;;;;;5069052;28;20211;-84
2023/12/18 02:03:49;;;;;;;13.10;3.83;;;28.00;99.90;;;;;;5075312;28;20216;-84
2023/12/18 02:06:22;;;;;;;13.52;3.85;;;27.90;99.90;;;;;;5073168;28;20207;-83
2023/12/18 02:08:53;;;;;;;12.93;4.18;;;27.90;99.90;;;;;;5072138;28;20283;-84
2023/12/18 02:11:26;;;;;;;13.30;3.90;;;27.90;99.90;;;;;;5071567;28;20231;-84
2023/12/18 02:13:57;;;;;;;13.27;4.22;;;28.00;99.90;;;;;;5072107;28;20232;-84
2023/12/18 02:16:28;;;;;;;13.43;3.55;;;28.10;99.90;;;;;;5081603;28;20263;-84
2023/12/18 02:18:58;;;;;;;14.07;3.85;;;28.30;99.90;;;;;;5073431;28;20286;-84
2023/12/18 02:21:29;;;;;;;10.13;3.28;;;28.10;99.90;;;;;;5089794;28;20210;-84
2023/12/18 02:24:02;;;;;;;14.55;3.80;;;28.10;99.90;;;;;;5092312;28;20247;-84
2023/12/18 02:26:33;;;;;;;15.10;4.53;;;28.10;99.90;;;;;;5084392;28;20283;-83
2023/12/18 02:29:04;;;;;;;11.98;4.03;;;28.10;99.90;;;;;;5075495;28;20188;-83
2023/12/18 02:31:35;;;;;;;12.00;3.58;;;28.40;99.90;;;;;;5078464;28;20290;-84
2023/12/18 02:34:06;;;;;;;12.20;3.58;;;28.50;99.90;;;;;;5096185;28;20362;-84
2023/12/18 02:36:37;;;;;;;11.38;3.22;;;28.70;99.90;;;;;;5079698;28;20279;-82
2023/12/18 02:39:09;;;;;;;18.02;4.13;;;28.80;99.90;;;;;;5074366;28;20192;-83
2023/12/18 02:41:40;;;;;;;12.43;3.78;;;28.90;99.90;;;;;;5072775;28;20200;-83
2023/12/18 02:44:11;;;;;;;8.15;2.92;;;29.00;99.90;;;;;;5073582;28;20327;-83
2023/12/18 02:46:42;;;;;;;10.23;3.72;;;28.90;99.90;;;;;;5074004;28;20200;-82
2023/12/18 02:49:13;;;;;;;11.63;3.72;;;28.90;99.90;;;;;;5083165;28;20211;-83
2023/12/18 02:51:44;;;;;;;14.23;3.67;;;28.90;99.90;;;;;;5115022;28;20187;-83
2023/12/18 02:54:17;;;;;;;12.60;3.63;;;28.70;99.90;;;;;;5117633;28;20242;-83
2023/12/18 02:56:47;;;;;;;13.30;3.42;;;28.70;99.90;;;;;;5111938;28;20201;-83
2023/12/18 02:59:18;;;;;;;12.27;3.38;;;28.70;99.90;;;;;;5085869;28;20192;-83
2023/12/18 03:01:50;;;;;;;14.43;3.58;;;28.80;99.90;;;;;;5082725;28;20203;-83
2023/12/18 03:04:21;;;;;;;10.63;3.63;;;28.70;99.90;;;;;;5063122;28;20259;-83
2023/12/18 03:06:52;;;;;;;11.50;3.50;;;28.90;99.90;;;;;;5074448;28;20212;-83
2023/12/18 03:09:25;;;;;;;11.55;3.28;;;28.80;99.90;;;;;;5073759;28;20286;-84
2023/12/18 03:11:56;;;;;;;10.18;3.38;;;28.90;99.90;;;;;;5074244;28;20218;-84
2023/12/18 03:14:27;;;;;;;7.88;2.90;;;29.10;99.90;;;;;;5077251;28;20283;-82
2023/12/18 03:16:58;;;;;;;9.63;3.40;;;29.20;99.90;;;;;;5083848;28;20306;-84
2023/12/18 03:19:29;;;;;;;10.40;3.15;;;29.40;99.90;;;;;;5073353;28;20196;-82
2023/12/18 03:22:00;;;;;;;14.68;3.58;;;29.50;99.90;;;;;;5072955;28;20286;-82
2023/12/18 03:24:34;;;;;;;12.43;3.20;;;29.50;99.90;;;;;;5070333;28;20739;-81
2023/12/18 03:27:06;;;;;;;16.42;3.63;;;29.60;99.90;;;;;;5073780;28;20608;-82
2023/12/18 03:29:37;;;;;;;11.73;3.08;;;29.60;99.90;;;;;;5069090;28;20284;-81
2023/12/18 03:32:08;;;;;;;10.43;3.42;;;29.60;99.90;;;;;;5095287;28;20255;-80
2023/12/18 03:34:39;;;;;;;12.60;3.80;;;29.60;99.90;;;;;;5112524;28;20249;-82
2023/12/18 03:37:10;;;;;;;11.98;2.90;;;29.60;99.90;;;;;;5105875;28;20238;-82
2023/12/18 03:39:42;;;;;;;10.63;3.25;;;29.50;99.90;;;;;;5080246;28;20265;-81
2023/12/18 03:42:13;;;;;;;13.27;3.75;;;29.50;99.90;;;;;;5083695;28;20195;-82
2023/12/18 03:44:46;;;;;;;12.77;3.45;;;29.50;99.90;;;;;;5083284;28;20230;-86
2023/12/18 03:47:17;;;;;;;14.15;3.58;;;29.60;99.90;;;;;;5057988;28;20674;-82
2023/12/18 03:49:48;;;;;;;12.98;3.53;;;29.40;99.90;;;;;;5067954;28;20207;-84
2023/12/18 03:52:19;;;;;;;17.02;3.55;;;29.30;99.90;;;;;;5070103;28;20232;-83
2023/12/18 03:54:55;;;;;;;11.70;3.40;;;29.20;99.90;;;;;;5077057;28;20352;-83
2023/12/18 03:57:26;;;;;;;12.05;3.25;;;29.30;99.90;;;;;;5078549;28;20243;-80
2023/12/18 03:59:57;;;;;;;13.07;3.85;;;29.40;99.90;;;;;;5068102;28;20614;-81
2023/12/18 04:02:28;;;;;;;13.90;3.83;;;29.50;99.90;;;;;;5102353;28;20196;-81
2023/12/18 04:04:59;;;;;;;11.57;3.38;;;29.40;99.90;;;;;;5074337;28;20722;-80
2023/12/18 04:07:30;;;;;;;12.00;3.55;;;29.40;99.90;;;;;;5052308;28;20313;-81
2023/12/18 04:10:03;;;;;;;12.82;3.40;;;29.50;99.90;;;;;;5067307;28;20206;-82
2023/12/18 04:12:34;;;;;;;12.57;3.33;;;29.40;99.90;;;;;;5065549;28;20193;-82
2023/12/18 04:15:05;;;;;;;12.13;3.35;;;29.50;99.90;;;;;;5085342;28;20582;-81
2023/12/18 04:17:36;;;;;;;11.38;3.40;;;29.70;99.90;;;;;;5089132;28;20227;-81
2023/12/18 04:20:08;;;;;;;19.52;4.07;;;29.60;99.90;;;;;;5056796;28;20185;-80
2023/12/18 04:22:38;;;;;;;9.65;3.35;;;29.60;99.90;;;;;;5057886;28;20271;-81
2023/12/18 04:25:11;;;;;;;15.50;3.90;;;29.70;99.90;;;;;;5059875;28;20245;-77
2023/12/18 04:27:42;;;;;;;17.77;4.20;;;29.60;99.90;;;;;;5057029;28;20212;-82
2023/12/18 04:30:14;;;;;;;12.63;3.88;;;29.60;99.90;;;;;;5067725;28;20272;-82
2023/12/18 04:32:45;;;;;;;13.15;4.30;;;29.70;99.90;;;;;;5053409;28;20239;-81
2023/12/18 04:35:16;;;;;;;16.92;3.83;;;29.80;99.90;;;;;;5051361;28;20227;-80
2023/12/18 04:37:47;;;;;;;16.55;4.68;;;29.80;99.90;;;;;;5070327;28;20218;-80
2023/12/18 04:40:20;;;;;;;14.10;3.92;;;29.80;99.90;;;;;;5067488;28;20200;-80
2023/12/18 04:42:50;;;;;;;14.32;3.67;;;29.80;99.90;;;;;;5069789;28;20196;-80
2023/12/18 04:45:21;;;;;;;15.48;3.92;;;29.60;99.90;;;;;;5070772;28;20220;-81
2023/12/18 04:47:52;;;;;;;14.98;4.07;;;29.60;99.90;;;;;;5071996;28;20203;-82
2023/12/18 04:50:23;;;;;;;12.90;3.63;;;29.60;99.90;;;;;;5070850;28;20184;-81
2023/12/18 04:52:53;;;;;;;14.13;4.00;;;29.70;99.90;;;;;;5068400;28;20216;-79
2023/12/18 04:55:26;;;;;;;12.20;3.40;;;29.70;99.90;;;;;;5082968;28;20207;-81
2023/12/18 04:57:57;;;;;;;12.63;3.50;;;29.80;99.90;;;;;;5074535;28;20218;-80
2023/12/18 05:00:28;;;;;;;17.67;4.05;;;30.00;99.90;;;;;;5070921;28;20707;-80
2023/12/18 05:02:58;;;;;;;17.10;4.15;;;30.10;99.90;;;;;;5058970;28;20248;-80
2023/12/18 05:05:29;;;;;;;13.73;4.10;;;30.00;99.90;;;;;;5066070;28;20295;-80
2023/12/18 05:08:00;;;;;;;17.25;3.97;;;30.10;99.90;;;;;;5088875;28;20216;-79
2023/12/18 05:10:33;;;;;;;13.40;3.65;;;30.00;99.90;;;;;;5085607;28;20300;-81
2023/12/18 05:13:03;;;;;;;10.70;3.63;;;30.20;99.90;;;;;;5073787;28;20192;-80
2023/12/18 05:15:34;;;;;;;16.92;4.10;;;30.40;99.90;;;;;;5066043;28;20218;-81
2023/12/18 05:18:05;;;;;;;13.27;3.70;;;30.40;99.90;;;;;;5082814;28;20713;-82
2023/12/18 05:20:36;;;;;;;14.02;3.78;;;30.40;99.90;;;;;;5073458;28;20206;-80
2023/12/18 05:23:07;;;;;;;13.70;3.50;;;30.20;99.90;;;;;;5074376;28;20215;-81
2023/12/18 05:25:40;;;;;;;11.43;3.60;;;30.10;99.90;;;;;;5070890;28;20231;-81
2023/12/18 05:28:10;;;;;;;14.52;3.95;;;30.00;99.90;;;;;;5084680;28;20222;-80
2023/12/18 05:30:41;;;;;;;15.07;3.47;;;29.60;99.90;;;;;;5070293;28;20208;-80
2023/12/18 05:33:12;;;;;;;11.65;3.72;;;29.70;99.90;;;;;;5069464;28;20594;-80
2023/12/18 05:35:43;;;;;;;14.30;4.10;;;29.80;99.90;;;;;;5061409;28;20197;-80
2023/12/18 05:38:14;;;;;;;11.88;3.85;;;29.80;99.90;;;;;;5069175;28;20223;-80
2023/12/18 05:40:47;;;;;;;15.63;4.40;;;29.90;99.90;;;;;;5077125;28;20215;-81
2023/12/18 05:43:17;;;;;;;12.27;3.90;;;29.90;99.90;;;;;;5069466;28;20219;-81
2023/12/18 05:45:48;;;;;;;16.42;4.10;;;29.80;99.90;;;;;;5060128;28;20315;-82
2023/12/18 05:48:19;;;;;;;21.67;4.32;;;29.80;99.90;;;;;;5070592;28;20575;-81
2023/12/18 05:50:50;;;;;;;12.68;3.80;;;29.90;99.90;;;;;;5073236;28;20187;-81
2023/12/18 05:53:21;;;;;;;16.00;3.72;;;29.90;99.90;;;;;;5093043;28;20219;-81
2023/12/18 05:55:53;;;;;;;16.65;4.22;;;30.10;99.90;;;;;;5083971;28;20200;-81
2023/12/18 05:58:24;;;;;;;14.35;3.85;;;30.30;99.90;;;;;;5079913;28;20196;-80
2023/12/18 06:00:55;;;;;;;14.85;3.72;;;30.30;99.90;;;;;;5075641;28;20196;-80
2023/12/18 06:03:26;;;;;;;14.70;3.90;;;30.30;99.90;;;;;;5073999;28;20188;-81
2023/12/18 06:05:57;;;;;;;15.73;3.95;;;30.30;99.90;;;;;;5074049;28;20216;-81
2023/12/18 06:08:28;;;;;;;11.23;3.17;;;30.20;99.90;;;;;;5076031;28;20212;-83
2023/12/18 06:11:00;;;;;;;14.10;3.60;;;30.30;99.90;;;;;;5059546;28;20742;-84
2023/12/18 06:13:31;;;;;;;17.75;3.90;;;30.10;99.90;;;;;;5102788;28;20652;-83
2023/12/18 06:16:03;;;;;;;13.80;3.88;;;30.00;99.90;;;;;;5096236;28;20202;-82
2023/12/18 06:18:34;;;;;;;15.02;3.88;;;29.70;99.90;;;;;;5083513;28;20206;-83
2023/12/18 06:21:06;;;;;;;14.00;3.95;;;29.90;99.90;;;;;;5074239;28;20216;-82
2023/12/18 06:23:38;;;;;;;16.73;4.35;;;30.10;99.90;;;;;;5086218;28;20210;-83
2023/12/18 06:26:10;;;;;;;15.30;4.10;;;30.10;99.90;;;;;;5094903;28;20696;-82
2023/12/18 06:28:41;;;;;;;14.77;4.30;;;30.10;99.90;;;;;;5076472;28;20286;-83
2023/12/18 06:31:12;;;;;;;14.40;3.38;;;30.00;99.90;;;;;;5076488;28;20353;-86
2023/12/18 06:33:46;;;;;;;19.52;4.57;;;29.80;99.90;;;;;;5093100;28;20639;-94
2023/12/18 06:36:20;;;;;;;14.85;3.70;;;29.80;99.90;;;;;;5071636;28;20210;-89
2023/12/18 06:38:51;;;;;;;18.40;4.15;;;29.70;99.90;;;;;;5076875;28;20714;-85
2023/12/18 06:41:24;;;;;;;15.80;4.10;;;29.40;99.90;;;;;;5071922;28;20678;-85
2023/12/18 06:43:57;;;;;;;17.10;4.18;;;29.40;99.90;;;;;;5072668;28;20222;-83
2023/12/18 06:46:28;;;;;;;16.95;4.18;;;29.50;99.90;;;;;;5079917;28;20235;-83
2023/12/18 06:48:59;;;;;;;17.13;4.32;;;29.40;99.90;;;;;;5073728;28;20219;-84
2023/12/18 06:51:31;;;;;;;15.80;4.20;;;29.30;99.90;;;;;;5072287;28;20212;-84
2023/12/18 06:54:02;;;;;;;16.60;4.28;;;29.30;99.90;;;;;;5073336;28;20240;-80
2023/12/18 06:56:34;;;;;;;17.88;4.10;;;29.20;99.90;;;;;;5057188;28;20219;-80
2023/12/18 06:59:06;;;;;;;18.33;4.60;;;29.10;99.90;;;;;;5054570;28;20203;-81
2023/12/18 07:01:37;;;;;;;19.38;4.80;;;29.00;99.90;;;;;;5073139;28;20188;-81
2023/12/18 07:04:08;;;;;;;17.35;4.50;;;28.80;99.90;;;;;;5081589;28;20302;-81
2023/12/18 07:06:38;;;;;;;15.70;4.63;;;28.80;99.90;;;;;;5094343;28;20227;-82
2023/12/18 07:09:09;;;;;;;17.85;4.60;;;28.70;99.90;;;;;;5076360;28;20216;-82
2023/12/18 07:11:42;;;;;;;22.33;5.28;;;28.70;99.90;;;;;;5072628;28;20198;-81
2023/12/18 07:14:13;;;;;;;25.52;5.22;;;28.50;99.90;;;;;;5062560;28;21075;-81
2023/12/18 07:16:44;;;;;;;20.92;4.50;;;28.30;99.90;;;;;;5066533;28;20705;-81
2023/12/18 07:19:14;;;;;;;20.35;5.10;;;28.10;99.90;;;;;;5063123;28;20200;-81
2023/12/18 07:21:45;;;;;;;22.58;4.60;;;28.00;99.90;;;;;;5074635;28;20219;-82
2023/12/18 07:24:16;;;;;;;18.27;4.65;;;28.00;99.90;;;;;;5089861;28;20220;-82
2023/12/18 07:26:49;;;;;;;21.20;4.47;;;28.00;99.90;;;;;;5077206;28;20244;-80
2023/12/18 07:29:20;;;;;;;20.58;4.93;;;28.20;99.90;;;;;;5053446;28;20225;-81
2023/12/18 07:31:51;;;;;;;18.67;4.53;;;28.40;99.90;;;;;;5052930;28;20228;-80
2023/12/18 07:34:22;;;;;;;17.73;4.57;;;28.40;99.90;;;;;;5063190;28;20214;-80
2023/12/18 07:36:52;;;;;;;22.80;5.20;;;28.50;99.90;;;;;;5073056;28;20589;-81
2023/12/18 07:39:23;;;;;;;25.13;5.25;;;28.60;99.90;;;;;;5079536;28;20207;-80
2023/12/18 07:41:56;;;;;;;18.90;4.60;;;28.60;99.90;;;;;;5067434;28;20724;-81
2023/12/18 07:44:27;;;;;;;17.52;4.45;;;28.80;99.90;;;;;;5074918;28;20184;-81
2023/12/18 07:46:57;;;;;;;21.02;4.60;;;28.80;99.90;;;;;;5069591;28;20220;-80
2023/12/18 07:49:28;;;;;;;21.33;4.47;;;28.50;99.90;;;;;;5071303;28;20247;-81
2023/12/18 07:51:59;;;;;;;22.67;4.68;;;28.30;99.90;;;;;;5066674;28;20298;-80
2023/12/18 07:54:30;;;;;;;19.35;4.82;;;28.10;99.90;;;;;;5079179;28;20218;-81
2023/12/18 07:57:03;;;;;;;19.50;4.40;;;27.90;99.90;;;;;;5059565;28;20689;-81
2023/12/18 07:59:36;;;;;;;22.65;5.38;;;27.60;99.90;;;;;;5058852;28;20219;-81
2023/12/18 08:02:07;;;;;;;18.08;4.80;;;27.70;99.90;;;;;;5068578;28;20277;-82
2023/12/18 08:04:38;;;;;;;23.50;4.88;;;27.70;99.90;;;;;;5066070;28;20211;-81
2023/12/18 08:07:07;;;;;;;18.02;4.90;;;27.70;99.90;;;;;;5083415;28;20219;-82
2023/12/18 08:09:38;;;;;;;18.17;4.05;;;27.60;99.90;;;;;;5079423;28;20610;-80
2023/12/18 08:12:11;;;;;;;20.80;4.85;;;27.60;99.90;;;;;;5080769;28;20579;-81
2023/12/18 08:14:46;;;;;;;17.08;4.25;;;27.60;99.90;;;;;;5077021;28;20298;-81
2023/12/18 08:17:16;;;;;;;19.90;4.35;;;27.60;99.90;;;;;;5072618;28;20226;-79
2023/12/18 08:19:50;;;;;;;16.52;4.43;;;27.50;99.90;;;;;;5071332;28;20188;-78
2023/12/18 08:22:20;;;;;;;15.82;4.38;;;27.40;99.90;;;;;;5071692;28;20192;-82
2023/12/18 08:24:51;;;;;;;19.75;4.90;;;27.40;99.90;;;;;;5053729;28;20213;-78
2023/12/18 08:27:24;;;;;;;20.00;5.47;;;27.40;99.90;;;;;;5070843;28;20223;-79
2023/12/18 08:29:56;;;;;;;16.52;5.00;;;27.30;99.90;;;;;;5072422;28;20210;-78
2023/12/18 08:32:27;;;;;;;19.40;4.90;;;27.30;99.90;;;;;;5082719;28;20202;-78
2023/12/18 08:35:00;;;;;;;26.10;5.45;;;27.30;99.90;;;;;;5060169;28;20198;-78
2023/12/18 08:37:31;;;;;;;22.52;5.20;;;27.20;99.90;;;;;;5065172;28;20203;-80
2023/12/18 08:40:02;;;;;;;18.40;4.93;;;27.20;99.90;;;;;;5072845;28;20204;-79
2023/12/18 08:42:34;;;;;;;18.42;4.13;;;27.10;99.90;;;;;;5078244;28;20216;-79
2023/12/18 08:45:05;;;;;;;17.50;4.53;;;27.00;99.90;;;;;;5068977;28;20278;-80
2023/12/18 08:47:36;;;;;;;22.60;5.10;;;27.00;99.90;;;;;;5052070;28;20250;-80
2023/12/18 08:50:09;;;;;;;18.92;4.72;;;27.10;99.90;;;;;;5068937;28;20221;-80
2023/12/18 08:52:40;;;;;;;20.40;5.00;;;27.10;99.90;;;;;;5070469;28;20192;-78
2023/12/18 08:55:11;;;;;;;19.55;5.15;;;27.10;99.90;;;;;;5071606;28;20201;-79
2023/12/18 08:57:44;;;;;;;17.38;4.63;;;27.10;99.90;;;;;;5070409;28;20205;-78
2023/12/18 09:00:17;;;;;;;19.15;5.05;;;27.10;99.90;;;;;;5069446;28;20203;-79
2023/12/18 09:02:47;;;;;;;19.05;4.68;;;27.00;99.90;;;;;;5061890;28;20192;-79
2023/12/18 09:05:18;;;;;;;16.33;4.75;;;27.00;99.90;;;;;;5070728;28;20204;-77
2023/12/18 09:07:49;;;;;;;23.77;5.53;;;27.00;99.90;;;;;;5073178;28;20234;-80
2023/12/18 09:10:22;;;;;;;23.30;5.47;;;26.90;99.90;;;;;;5072579;28;20196;-79
2023/12/18 09:12:55;;;;;;;19.65;5.00;;;26.90;99.90;;;;;;5067986;28;20719;-79
2023/12/18 09:15:26;;;;;;;18.40;4.80;;;26.90;99.90;;;;;;5088748;28;20202;-79
2023/12/18 09:17:56;;;;;;;18.20;5.00;;;26.80;99.90;;;;;;5070070;28;20228;-80
2023/12/18 09:20:27;;;;;;;21.15;4.72;;;26.70;99.90;;;;;;5065456;28;20638;-79
2023/12/18 09:22:58;;;;;;;19.60;5.32;;;26.70;99.90;;;;;;5063970;28;20214;-79
2023/12/18 09:25:29;;;;;;;18.77;5.25;;;26.70;99.90;;;;;;5090972;28;20554;-79
2023/12/18 09:28:01;;;;;;;20.40;4.60;;;26.70;99.90;;;;;;5086444;28;20710;-80
2023/12/18 09:30:32;;;;;;;20.58;4.93;;;26.70;99.90;;;;;;5073619;28;20249;-79
2023/12/18 09:33:03;;;;;;;19.33;4.90;;;26.70;99.90;;;;;;5084735;28;20203;-78
2023/12/18 09:35:34;;;;;;;17.92;4.45;;;26.70;99.90;;;;;;5060046;28;20189;-80
2023/12/18 09:38:06;;;;;;;16.35;4.65;;;26.70;99.90;;;;;;5090828;28;20203;-80
2023/12/18 09:40:37;;;;;;;16.15;4.70;;;26.70;99.90;;;;;;5078034;28;20187;-79
2023/12/18 09:43:09;;;;;;;17.98;4.65;;;26.70;99.90;;;;;;5074848;28;20196;-79
2023/12/18 09:45:40;;;;;;;19.90;4.55;;;26.80;99.90;;;;;;5073457;28;20192;-80
2023/12/18 09:48:11;;;;;;;17.35;5.00;;;26.70;99.90;;;;;;5069944;28;20862;-79
2023/12/18 09:50:42;;;;;;;18.05;4.90;;;26.80;99.90;;;;;;5066091;28;20206;-79
2023/12/18 09:53:17;;;;;;;12.38;4.32;;;26.70;99.90;;;;;;5078382;28;20283;-79
2023/12/18 09:55:48;;;;;;;16.38;4.72;;;26.70;99.90;;;;;;5092994;28;20673;-80
2023/12/18 09:58:23;;;;;;;14.70;4.63;;;26.70;99.90;;;;;;5093951;28;20203;-79
2023/12/18 10:00:54;;;;;;;12.43;4.70;;;26.70;99.90;;;;;;5089548;28;20195;-79
2023/12/18 10:03:25;;;;;;;18.55;6.22;;;26.70;99.90;;;;;;5085353;28;20220;-78
2023/12/18 10:05:56;;;;;;;16.92;4.70;;;26.80;99.90;;;;;;5072418;28;20197;-79
2023/12/18 10:08:26;;;;;;;17.70;5.20;;;26.70;99.90;;;;;;5072835;28;20204;-80
2023/12/18 10:11:18;;;;;;;15.18;4.82;;;26.80;99.90;;;;;;5079281;28;20202;-79
2023/12/18 10:13:53;;;;;;;17.30;4.80;;;26.70;99.90;;;;;;5072425;28;20245;-77
2023/12/18 10:16:24;;;;;;;13.32;5.05;;;26.70;99.90;;;;;;5067090;28;20212;-78
2023/12/18 10:18:56;;;;;;;14.77;4.78;;;26.70;99.90;;;;;;5057484;28;20219;-79
2023/12/18 10:21:27;;;;;;;17.85;5.43;;;26.80;99.90;;;;;;5069757;28;20258;-80
2023/12/18 10:24:01;;;;;;;12.50;4.85;;;26.80;99.90;;;;;;5070865;28;20689;-79
2023/12/18 10:26:32;;;;;;;14.65;4.78;;;26.80;99.90;;;;;;5074197;28;20227;-81
2023/12/18 10:29:07;;;;;;;13.98;5.15;;;26.80;99.90;;;;;;5081685;28;20222;-81
2023/12/18 10:31:41;;;;;;;16.15;5.05;;;26.70;99.90;;;;;;5080467;28;20192;-80
2023/12/18 10:34:13;;;;;;;14.18;5.00;;;26.70;99.90;;;;;;5070132;28;20600;-78
2023/12/18 10:36:45;;;;;;;14.50;5.28;;;26.70;99.90;;;;;;5067244;28;20286;-78
2023/12/18 10:39:19;;;;;;;15.43;5.47;;;26.70;99.90;;;;;;5069183;28;20207;-78
2023/12/18 10:41:57;;;;;;;13.40;5.10;;;26.70;99.90;;;;;;5072729;28;20192;-77
2023/12/18 10:44:34;;;;;;;15.70;5.15;;;26.70;99.90;;;;;;5086839;28;20192;-80
2023/12/18 10:47:10;;;;;;;13.80;4.82;;;26.70;99.90;;;;;;5093704;28;20227;-80
2023/12/18 10:49:43;;;;;;;14.95;5.18;;;26.60;99.90;;;;;;5075988;28;20249;-80
2023/12/18 10:52:16;;;;;;;15.70;5.13;;;26.60;99.90;;;;;;5075688;28;20188;-80
2023/12/18 10:54:52;;;;;;;15.13;5.47;;;26.60;99.90;;;;;;5075049;28;20200;-82
2023/12/18 10:57:26;;;;;;;14.85;5.22;;;26.60;99.90;;;;;;5074879;28;20226;-79
2023/12/18 11:00:01;;;;;;;15.93;5.45;;;26.60;99.90;;;;;;5072975;28;20231;-79
2023/12/18 11:02:32;;;;;;;14.63;4.95;;;26.60;99.90;;;;;;5073282;28;20197;-79
2023/12/18 11:05:06;;;;;;;15.98;5.25;;;26.60;99.90;;;;;;5070661;28;20215;-79
2023/12/18 11:07:41;;;;;;;15.77;5.25;;;26.60;99.90;;;;;;5081318;28;20225;-80
2023/12/18 11:10:12;;;;;;;16.75;5.15;;;26.60;99.90;;;;;;5074026;28;20187;-80
2023/12/18 11:12:59;;;;;;;13.77;5.15;;;26.50;99.90;;;;;;5073150;28;20211;-82
2023/12/18 11:15:39;;;;;;;10.27;4.53;;;26.50;99.90;;;;;;5057828;28;20200;-80
2023/12/18 11:18:28;;;;;;;17.80;5.35;;;26.50;99.90;;;;;;5051338;28;20220;-81
2023/12/18 11:21:05;;;;;;;16.40;5.13;;;26.50;99.90;;;;;;5054321;28;20193;-79
2023/12/18 11:23:44;;;;;;;14.88;5.38;;;26.50;99.90;;;;;;5058021;28;20192;-80
2023/12/18 11:26:17;;;;;;;11.05;4.57;;;26.50;99.90;;;;;;5060201;28;20250;-82
2023/12/18 11:28:50;;;;;;;20.50;5.25;;;26.50;99.90;;;;;;5060468;28;20215;-80
2023/12/18 11:31:23;;;;;;;15.45;5.70;;;26.50;99.90;;;;;;5047983;28;20607;-81
2023/12/18 11:34:10;;;;;;;13.40;5.63;;;26.50;99.90;;;;;;5035088;28;20259;-80
2023/12/18 11:36:43;;;;;;;12.75;4.65;;;26.50;99.90;;;;;;5052321;28;20287;-80
2023/12/18 11:39:16;;;;;;;14.30;5.80;;;26.50;99.90;;;;;;5052693;28;20275;-79
2023/12/18 11:41:48;;;;;;;16.90;5.65;;;26.40;99.90;;;;;;5058103;28;20200;-79
2023/12/18 11:44:24;;;;;;;12.98;5.03;;;26.40;99.90;;;;;;5072239;28;20188;-80
2023/12/18 11:47:08;;;;;;;13.27;5.60;;;26.40;99.90;;;;;;5065996;28;20224;-80
2023/12/18 11:49:40;;;;;;;12.93;5.45;;;26.40;99.90;;;;;;5052971;28;20251;-79
2023/12/18 11:52:25;;;;;;;13.93;5.90;;;26.30;99.90;;;;;;5052100;28;20614;-80
2023/12/18 11:54:55;;;;;;;13.02;5.20;;;26.30;99.90;;;;;;5035011;28;20256;-79
2023/12/18 11:57:26;;;;;;;15.18;5.90;;;26.20;99.90;;;;;;5032103;28;20203;-80
2023/12/18 12:00:02;;;;;;;16.85;6.00;;;26.20;99.90;;;;;;5050455;28;20208;-80
2023/12/18 12:02:36;;;;;;;15.93;5.97;;;26.20;99.90;;;;;;5052057;28;20262;-80
2023/12/18 12:05:09;;;;;;;15.32;5.38;;;26.20;99.90;;;;;;5051943;28;20212;-81
2023/12/18 12:07:41;;;;;;;12.75;5.00;;;26.20;99.90;;;;;;5052377;28;20270;-80
2023/12/18 12:10:12;;;;;;;13.35;5.50;;;26.20;99.90;;;;;;5049715;28;20196;-79
2023/12/18 12:12:43;;;;;;;13.10;5.57;;;26.20;99.90;;;;;;5031726;28;20205;-79
2023/12/18 12:15:17;;;;;;;16.52;5.65;;;26.20;99.90;;;;;;5037990;28;20201;-79
2023/12/18 12:17:49;;;;;;;14.25;5.50;;;26.30;99.90;;;;;;5051305;28;20296;-79
2023/12/18 12:20:20;;;;;;;14.90;5.50;;;26.30;99.90;;;;;;5051217;28;20193;-80
2023/12/18 12:22:51;;;;;;;16.10;5.80;;;26.30;99.90;;;;;;5051444;28;20202;-80
2023/12/18 12:25:22;;;;;;;15.65;6.50;;;26.30;99.90;;;;;;5049701;28;20201;-79
2023/12/18 12:27:53;;;;;;;11.70;5.75;;;26.30;99.90;;;;;;5045807;28;20232;-79
2023/12/18 12:30:24;;;;;;;16.42;5.60;;;26.30;99.90;;;;;;5048855;28;20306;-77
2023/12/18 12:32:58;;;;;;;12.70;5.90;;;26.30;99.90;;;;;;5037511;28;20196;-77
2023/12/18 12:35:29;;;;;;;12.93;5.60;;;26.30;99.90;;;;;;5051036;28;20207;-78
2023/12/18 12:38:00;;;;;;;13.93;6.10;;;26.30;99.90;;;;;;5047344;28;20203;-78
2023/12/18 12:40:41;;;;;;;18.42;6.00;;;26.30;99.90;;;;;;5056853;28;20197;-77
2023/12/18 12:43:12;;;;;;;13.52;5.90;;;26.40;99.90;;;;;;5046717;28;20222;-77
2023/12/18 12:45:44;;;;;;;13.00;6.18;;;26.30;99.90;;;;;;5053018;28;20220;-77
2023/12/18 12:48:17;;;;;;;14.75;6.13;;;26.30;99.90;;;;;;5045974;28;20232;-78
2023/12/18 12:50:49;;;;;;;13.20;6.35;;;26.30;99.90;;;;;;5057153;28;20704;-77
2023/12/18 12:53:23;;;;;;;14.00;5.75;;;26.30;99.90;;;;;;5052430;28;20219;-78
2023/12/18 12:55:58;;;;;;;13.43;5.90;;;26.30;99.90;;;;;;5055103;28;20212;-78
2023/12/18 12:58:33;;;;;;;13.80;5.93;;;26.40;99.90;;;;;;5059272;28;20191;-78
2023/12/18 13:01:06;;;;;;;15.82;6.05;;;26.30;99.90;;;;;;5061838;28;20200;-79
2023/12/18 13:03:39;;;;;;;15.07;6.30;;;26.30;99.90;;;;;;5060748;28;20721;-77